Time;durP1;ratioP1;P1;durP2;ratioP2;P2;SDS_P1;SDS_P2;PMS_P1;PMS_P2;Temp;Humidity;BMP_temperature;BMP_pressure;BME280_temperature;BME280_humidity;BME280_pressure;Samples;Min_cycle;Max_cycle;Signal;HPM_P1;HPM_P2
2022/03/23 00:00:46;;;;;;;27.27;17.37;;;12.30;58.80;;;;;;5056489;28;20513;-76
2022/03/23 00:03:16;;;;;;;20.30;15.60;;;11.80;59.50;;;;;;5054872;28;20938;-76
2022/03/23 00:05:42;;;;;;;25.10;17.30;;;11.70;60.00;;;;;;5053329;28;20477;-76
2022/03/23 00:08:11;;;;;;;20.60;16.60;;;11.30;60.90;;;;;;5041139;28;20434;-77
2022/03/23 00:10:37;;;;;;;29.63;18.83;;;11.30;61.60;;;;;;5056717;28;20490;-77
2022/03/23 00:13:04;;;;;;;22.30;15.67;;;11.60;61.20;;;;;;5056072;28;20429;-77
2022/03/23 00:15:30;;;;;;;23.60;18.13;;;11.70;60.80;;;;;;5053857;28;20630;-77
2022/03/23 00:17:57;;;;;;;24.50;17.20;;;11.70;61.40;;;;;;5039096;28;20445;-76
2022/03/23 00:20:24;;;;;;;22.93;17.90;;;11.80;60.30;;;;;;5054710;28;20469;-77
2022/03/23 00:22:51;;;;;;;24.73;17.77;;;11.80;59.70;;;;;;5045509;28;20429;-77
2022/03/23 00:25:16;;;;;;;21.33;17.20;;;11.50;61.10;;;;;;5054397;28;20561;-76
2022/03/23 00:27:42;;;;;;;15.90;13.23;;;11.30;61.60;;;;;;5057156;28;20425;-77
2022/03/23 00:30:08;;;;;;;17.80;14.77;;;11.20;62.70;;;;;;5055619;28;20733;-76
2022/03/23 00:32:34;;;;;;;16.97;13.97;;;11.30;62.80;;;;;;5039526;28;20237;-77
2022/03/23 00:35:01;;;;;;;19.23;14.73;;;11.50;63.30;;;;;;5058206;28;20978;-77
2022/03/23 00:37:26;;;;;;;21.33;16.77;;;11.60;62.40;;;;;;5056181;28;20195;-77
2022/03/23 00:39:52;;;;;;;19.30;15.50;;;11.80;62.10;;;;;;5054948;28;20461;-77
2022/03/23 00:42:17;;;;;;;19.57;14.77;;;11.60;62.30;;;;;;5058879;28;20223;-76
2022/03/23 00:44:43;;;;;;;18.17;15.47;;;11.30;62.80;;;;;;5057130;28;20302;-77
2022/03/23 00:47:09;;;;;;;17.67;12.90;;;11.10;64.10;;;;;;5055834;28;20424;-75
2022/03/23 00:49:36;;;;;;;22.10;15.70;;;11.10;64.10;;;;;;5057617;28;20183;-75
2022/03/23 00:52:05;;;;;;;20.47;14.37;;;10.90;64.80;;;;;;5058068;28;21026;-75
2022/03/23 00:54:38;;;;;;;19.80;15.40;;;11.30;64.40;;;;;;5053264;28;20548;-76
2022/03/23 00:57:05;;;;;;;18.90;14.67;;;11.50;63.40;;;;;;5054252;28;20554;-76
2022/03/23 00:59:32;;;;;;;22.03;15.50;;;11.70;63.20;;;;;;5057896;28;20447;-77
2022/03/23 01:01:58;;;;;;;17.30;13.73;;;11.70;63.00;;;;;;5038386;28;20939;-77
2022/03/23 01:04:24;;;;;;;18.73;14.13;;;11.50;63.10;;;;;;5042545;28;20563;-77
2022/03/23 01:06:52;;;;;;;18.23;13.70;;;11.40;63.60;;;;;;5063968;28;20440;-77
2022/03/23 01:09:23;;;;;;;19.50;14.30;;;11.50;63.60;;;;;;5062688;28;20421;-77
2022/03/23 01:11:53;;;;;;;28.43;16.90;;;11.40;63.80;;;;;;5045415;28;20429;-77
2022/03/23 01:14:22;;;;;;;21.20;15.90;;;11.10;64.40;;;;;;5060115;28;20488;-77
2022/03/23 01:16:50;;;;;;;24.60;16.60;;;11.30;64.30;;;;;;5058782;28;20514;-77
2022/03/23 01:19:17;;;;;;;19.07;15.87;;;11.60;63.40;;;;;;5065027;28;20452;-78
2022/03/23 01:21:44;;;;;;;21.07;17.10;;;11.40;63.50;;;;;;5061266;28;20441;-76
2022/03/23 01:24:10;;;;;;;18.30;14.80;;;11.30;63.90;;;;;;5058856;28;20566;-77
2022/03/23 01:26:36;;;;;;;20.10;15.10;;;11.00;64.10;;;;;;5038515;28;20825;-76
2022/03/23 01:29:03;;;;;;;21.53;14.97;;;11.20;65.00;;;;;;5039498;28;20445;-77
2022/03/23 01:31:32;;;;;;;18.40;14.90;;;11.30;64.50;;;;;;5057423;28;20926;-78
2022/03/23 01:33:59;;;;;;;18.20;14.57;;;11.40;64.50;;;;;;5064225;28;20476;-78
2022/03/23 01:36:30;;;;;;;19.13;15.60;;;11.50;64.20;;;;;;5042572;28;20459;-79
2022/03/23 01:38:56;;;;;;;19.83;14.10;;;11.60;64.10;;;;;;5056672;28;20474;-78
2022/03/23 01:41:23;;;;;;;19.23;14.37;;;11.20;64.90;;;;;;5058009;28;20445;-79
2022/03/23 01:43:50;;;;;;;22.20;14.50;;;11.10;65.80;;;;;;5057529;28;20469;-77
2022/03/23 01:46:17;;;;;;;19.10;16.60;;;11.30;65.20;;;;;;5044432;28;20816;-77
2022/03/23 01:48:44;;;;;;;25.43;15.67;;;11.00;65.70;;;;;;5040212;28;21054;-77
2022/03/23 01:51:10;;;;;;;22.23;14.20;;;11.10;66.00;;;;;;5041802;28;20534;-77
2022/03/23 01:53:36;;;;;;;18.30;14.43;;;10.70;65.80;;;;;;5059570;28;20437;-77
2022/03/23 01:56:02;;;;;;;22.27;14.00;;;10.70;67.40;;;;;;5041126;28;20792;-76
2022/03/23 01:58:28;;;;;;;18.93;13.70;;;11.00;67.00;;;;;;5059264;28;20499;-76
2022/03/23 02:00:54;;;;;;;22.27;14.57;;;10.80;66.50;;;;;;5057154;28;20438;-77
2022/03/23 02:03:20;;;;;;;19.93;16.33;;;10.50;67.60;;;;;;5041802;28;20443;-77
2022/03/23 02:05:45;;;;;;;17.60;15.43;;;10.10;67.20;;;;;;5058568;28;20242;-76
2022/03/23 02:08:12;;;;;;;20.27;15.40;;;10.10;69.10;;;;;;5062555;28;20537;-76
2022/03/23 02:10:37;;;;;;;18.27;14.40;;;10.30;68.20;;;;;;5053705;28;20187;-76
2022/03/23 02:13:03;;;;;;;16.70;14.20;;;10.30;67.90;;;;;;5058923;28;20522;-77
2022/03/23 02:15:29;;;;;;;20.33;15.00;;;10.40;68.20;;;;;;5053717;28;20294;-76
2022/03/23 02:17:56;;;;;;;19.77;14.83;;;10.30;68.30;;;;;;5054014;28;20573;-77
2022/03/23 02:20:23;;;;;;;18.07;13.77;;;10.50;68.10;;;;;;5057321;28;21159;-77
2022/03/23 02:22:49;;;;;;;15.47;13.00;;;10.70;67.40;;;;;;5055234;28;20456;-77
2022/03/23 02:25:21;;;;;;;17.73;14.50;;;10.80;67.10;;;;;;5056506;28;20469;-77
2022/03/23 02:27:48;;;;;;;20.53;15.37;;;10.80;67.20;;;;;;5059730;28;20476;-77
2022/03/23 02:30:14;;;;;;;19.10;14.00;;;10.90;67.20;;;;;;5055710;28;20866;-77
2022/03/23 02:32:40;;;;;;;22.50;15.17;;;10.90;67.40;;;;;;5056781;28;20491;-77
2022/03/23 02:35:08;;;;;;;21.27;15.70;;;10.90;67.50;;;;;;5057444;28;20478;-77
2022/03/23 02:37:35;;;;;;;21.33;16.63;;;10.90;67.30;;;;;;5057880;28;20182;-76
2022/03/23 02:40:01;;;;;;;19.37;15.60;;;10.90;66.60;;;;;;5053207;28;21489;-76
2022/03/23 02:42:26;;;;;;;21.93;16.00;;;10.90;66.80;;;;;;5059948;28;20448;-76
2022/03/23 02:44:52;;;;;;;23.00;16.87;;;10.90;66.70;;;;;;5058293;28;20473;-77
2022/03/23 02:47:18;;;;;;;19.77;16.73;;;10.70;66.30;;;;;;5056005;28;20236;-76
2022/03/23 02:49:44;;;;;;;22.57;16.87;;;10.60;67.90;;;;;;5058613;28;20211;-76
2022/03/23 02:52:09;;;;;;;21.30;16.00;;;10.60;67.80;;;;;;5052015;28;20194;-76
2022/03/23 03:03:32;;;;;;;20.23;14.63;;;10.30;68.10;;;;;;5040285;28;20452;-76
2022/03/23 03:05:57;;;;;;;21.67;16.40;;;10.20;68.80;;;;;;5053548;28;20466;-77
2022/03/23 03:11:09;;;;;;;23.63;15.60;;;10.30;68.40;;;;;;5057432;28;20244;-75
2022/03/23 03:13:35;;;;;;;19.77;13.87;;;10.50;68.80;;;;;;5057278;28;20930;-75
2022/03/23 03:16:02;;;;;;;15.47;13.80;;;10.60;68.30;;;;;;5057058;28;20240;-75
2022/03/23 03:18:31;;;;;;;20.30;14.53;;;10.70;68.10;;;;;;5053462;28;20180;-75
2022/03/23 03:20:57;;;;;;;21.30;15.00;;;10.20;68.50;;;;;;5059731;28;22293;-75
2022/03/23 03:23:23;;;;;;;18.30;13.83;;;10.10;68.80;;;;;;5057717;28;20472;-75
2022/03/23 03:25:49;;;;;;;20.33;14.63;;;10.00;69.40;;;;;;5055813;28;20823;-75
2022/03/23 03:28:15;;;;;;;16.83;14.70;;;10.10;69.90;;;;;;5053873;28;20456;-75
2022/03/23 03:30:41;;;;;;;19.90;13.73;;;10.30;69.30;;;;;;5038166;28;20861;-75
2022/03/23 03:36:28;;;;;;;20.03;15.57;;;10.40;68.70;;;;;;5055059;28;20241;-76
2022/03/23 03:38:54;;;;;;;23.83;14.37;;;10.50;68.60;;;;;;5060087;28;20430;-75
2022/03/23 03:41:20;;;;;;;17.17;14.17;;;10.40;68.50;;;;;;5060607;28;20592;-79
2022/03/23 03:43:46;;;;;;;19.60;14.03;;;10.30;69.10;;;;;;5031726;28;20467;-79
2022/03/23 03:46:12;;;;;;;18.77;14.57;;;10.10;69.40;;;;;;5062327;28;20272;-77
2022/03/23 03:48:40;;;;;;;22.60;15.00;;;10.20;70.00;;;;;;5054863;28;20250;-77
2022/03/23 03:51:07;;;;;;;17.03;14.03;;;10.30;69.70;;;;;;5046940;28;20460;-78
2022/03/23 03:53:33;;;;;;;17.37;13.80;;;10.30;69.50;;;;;;5057521;28;20440;-77
2022/03/23 03:55:59;;;;;;;16.77;14.40;;;10.40;69.50;;;;;;5054520;28;20447;-77
2022/03/23 03:58:25;;;;;;;17.10;13.13;;;10.30;69.20;;;;;;5057338;28;20779;-77
2022/03/23 04:00:51;;;;;;;20.93;15.10;;;10.10;69.10;;;;;;5040823;28;20442;-76
2022/03/23 04:03:17;;;;;;;20.43;15.03;;;9.80;70.90;;;;;;5057769;28;20179;-77
2022/03/23 04:05:42;;;;;;;21.30;15.13;;;9.50;73.00;;;;;;5055753;28;20206;-77
2022/03/23 04:08:08;;;;;;;19.57;16.27;;;9.70;72.20;;;;;;5043187;28;20503;-78
2022/03/23 04:10:35;;;;;;;21.53;14.33;;;9.50;72.30;;;;;;5046822;28;20181;-78
2022/03/23 04:13:00;;;;;;;23.60;16.10;;;9.50;72.50;;;;;;5060145;28;20468;-77
2022/03/23 04:15:26;;;;;;;21.57;14.77;;;9.60;72.50;;;;;;5043232;28;20486;-77
2022/03/23 04:17:55;;;;;;;22.00;15.10;;;9.70;72.20;;;;;;5054558;28;20187;-77
2022/03/23 04:20:22;;;;;;;20.73;15.50;;;9.80;72.00;;;;;;5056667;28;20179;-77
2022/03/23 04:22:48;;;;;;;19.90;15.73;;;9.90;71.60;;;;;;5055265;28;20495;-77
2022/03/23 04:25:15;;;;;;;22.23;16.10;;;9.80;71.40;;;;;;5038500;28;20474;-76
2022/03/23 04:27:55;;;;;;;19.87;15.50;;;9.70;72.20;;;;;;5059498;28;20449;-78
2022/03/23 04:30:23;;;;;;;22.50;16.07;;;9.70;72.50;;;;;;5060846;28;20507;-78
2022/03/23 04:32:50;;;;;;;18.70;15.47;;;9.90;71.80;;;;;;5062988;28;20514;-78
2022/03/23 04:35:17;;;;;;;28.23;15.83;;;9.80;71.30;;;;;;5048311;28;20466;-78
2022/03/23 04:37:43;;;;;;;20.43;16.07;;;9.80;72.10;;;;;;5044646;28;20445;-77
2022/03/23 04:40:11;;;;;;;18.60;15.77;;;9.80;71.80;;;;;;5057056;28;20459;-77
2022/03/23 04:42:37;;;;;;;19.27;14.70;;;9.70;71.80;;;;;;5042810;28;21145;-77
2022/03/23 04:45:05;;;;;;;20.07;15.00;;;9.80;72.10;;;;;;5057060;28;20583;-77
2022/03/23 04:47:30;;;;;;;21.07;15.80;;;9.70;72.30;;;;;;5059637;28;20442;-76
2022/03/23 04:49:56;;;;;;;20.73;15.70;;;9.50;73.40;;;;;;5061631;28;20444;-77
2022/03/23 04:52:22;;;;;;;21.27;14.70;;;9.50;73.50;;;;;;5060297;28;20193;-77
2022/03/23 04:54:47;;;;;;;19.40;15.33;;;9.50;73.40;;;;;;5047560;28;20223;-77
2022/03/23 04:57:13;;;;;;;21.37;15.07;;;9.60;73.10;;;;;;5044293;28;20187;-77
2022/03/23 04:59:39;;;;;;;17.87;14.60;;;9.20;74.70;;;;;;5057516;28;20306;-76
2022/03/23 05:02:05;;;;;;;22.70;15.47;;;9.30;74.20;;;;;;5063511;28;20261;-78
2022/03/23 05:04:31;;;;;;;19.03;15.17;;;9.30;74.50;;;;;;5048786;28;20203;-77
2022/03/23 05:06:56;;;;;;;17.33;13.83;;;8.70;75.80;;;;;;5060135;28;20643;-76
2022/03/23 05:09:22;;;;;;;17.83;14.33;;;8.70;76.20;;;;;;5061438;28;20221;-77
2022/03/23 05:11:48;;;;;;;21.97;16.20;;;8.90;75.40;;;;;;5059065;28;20255;-77
2022/03/23 05:14:15;;;;;;;21.53;15.10;;;8.60;75.90;;;;;;5040579;28;20747;-77
2022/03/23 05:16:41;;;;;;;20.07;14.50;;;8.10;77.70;;;;;;5062510;28;20187;-76
2022/03/23 05:19:07;;;;;;;19.70;14.07;;;7.70;78.90;;;;;;5058270;28;20436;-76
2022/03/23 05:21:33;;;;;;;18.73;13.93;;;7.70;80.30;;;;;;5058261;28;20438;-76
2022/03/23 05:23:58;;;;;;;23.77;16.20;;;8.10;79.30;;;;;;5059910;28;20728;-77
2022/03/23 05:26:24;;;;;;;20.97;14.80;;;7.70;80.80;;;;;;5060365;28;20187;-74
2022/03/23 05:28:50;;;;;;;20.70;15.13;;;7.60;80.60;;;;;;5042143;28;20183;-77
2022/03/23 05:31:15;;;;;;;23.37;16.83;;;7.40;82.60;;;;;;5060988;28;20662;-76
2022/03/23 05:33:44;;;;;;;19.83;14.00;;;7.70;82.00;;;;;;5057017;28;20180;-76
2022/03/23 05:36:09;;;;;;;20.63;14.90;;;8.10;81.40;;;;;;5061141;28;20208;-76
2022/03/23 05:38:35;;;;;;;18.57;14.80;;;8.10;79.70;;;;;;5060195;28;20461;-76
2022/03/23 05:41:00;;;;;;;22.17;14.60;;;8.00;80.40;;;;;;5057868;28;20521;-76
2022/03/23 05:43:26;;;;;;;23.33;15.70;;;8.20;80.00;;;;;;5044869;28;20245;-77
2022/03/23 05:45:52;;;;;;;21.63;14.97;;;8.30;79.70;;;;;;5039488;28;20298;-76
2022/03/23 05:48:17;;;;;;;26.60;15.47;;;8.50;79.10;;;;;;5059272;28;20182;-75
2022/03/23 05:50:43;;;;;;;24.93;14.60;;;8.50;78.50;;;;;;5058713;28;20221;-76
2022/03/23 05:53:09;;;;;;;18.40;14.43;;;8.40;79.60;;;;;;5058368;28;20186;-75
2022/03/23 05:55:35;;;;;;;19.77;13.70;;;8.30;79.70;;;;;;5058037;28;20204;-77
2022/03/23 05:58:03;;;;;;;20.00;14.87;;;8.40;80.10;;;;;;5043405;28;20519;-77
2022/03/23 06:00:29;;;;;;;22.90;14.90;;;8.00;80.80;;;;;;5061616;28;20503;-77
2022/03/23 06:02:55;;;;;;;20.47;14.50;;;8.10;81.90;;;;;;5059201;28;20448;-77
2022/03/23 06:05:21;;;;;;;19.43;15.33;;;8.30;80.60;;;;;;5044925;28;21133;-76
2022/03/23 06:07:46;;;;;;;18.83;13.00;;;7.90;82.30;;;;;;5045313;28;20221;-77
2022/03/23 06:10:12;;;;;;;23.60;15.20;;;8.00;82.80;;;;;;5058975;28;20338;-77
2022/03/23 06:12:38;;;;;;;22.17;15.27;;;8.30;82.80;;;;;;5062456;28;20182;-76
2022/03/23 06:15:06;;;;;;;23.73;15.03;;;8.60;81.30;;;;;;5044063;28;20317;-76
2022/03/23 06:17:31;;;;;;;21.97;14.90;;;8.30;81.70;;;;;;5040642;28;20179;-76
2022/03/23 06:19:57;;;;;;;23.67;16.00;;;8.20;82.60;;;;;;5056401;28;20629;-76
2022/03/23 06:22:23;;;;;;;20.93;15.33;;;8.50;82.40;;;;;;5060580;28;20190;-76
2022/03/23 06:24:48;;;;;;;21.80;15.20;;;8.70;81.80;;;;;;5057896;28;20253;-76
2022/03/23 06:27:14;;;;;;;39.87;16.10;;;8.70;81.20;;;;;;5056170;28;20217;-76
2022/03/23 06:29:40;;;;;;;21.83;16.30;;;8.70;82.00;;;;;;5054917;28;20198;-77
2022/03/23 06:32:06;;;;;;;22.37;16.43;;;8.90;81.50;;;;;;5054650;28;20552;-77
2022/03/23 06:34:32;;;;;;;22.73;16.00;;;8.70;81.60;;;;;;5058598;28;20464;-76
2022/03/23 06:36:58;;;;;;;26.13;15.80;;;8.70;81.70;;;;;;5056148;28;20470;-76
2022/03/23 06:39:23;;;;;;;26.67;16.43;;;8.50;82.90;;;;;;5059398;28;20249;-76
2022/03/23 06:41:49;;;;;;;24.80;15.23;;;8.40;82.90;;;;;;5059430;28;20190;-78
2022/03/23 06:44:16;;;;;;;26.33;15.77;;;8.30;83.80;;;;;;5064773;28;20250;-79
2022/03/23 06:46:42;;;;;;;21.80;14.83;;;8.30;83.80;;;;;;5059709;28;20179;-78
2022/03/23 06:49:07;;;;;;;19.63;14.60;;;8.40;84.80;;;;;;5056976;28;20437;-77
2022/03/23 06:51:33;;;;;;;22.27;15.57;;;8.60;83.50;;;;;;5058610;28;20444;-77
2022/03/23 06:53:58;;;;;;;20.67;16.03;;;8.30;83.10;;;;;;5040092;28;20220;-77
2022/03/23 06:56:24;;;;;;;23.63;15.50;;;7.90;85.10;;;;;;5056569;28;20191;-78
2022/03/23 06:58:49;;;;;;;23.73;16.30;;;7.80;86.40;;;;;;5058285;28;20192;-77
2022/03/23 07:01:15;;;;;;;22.03;16.27;;;7.90;86.10;;;;;;5052862;28;20242;-76
2022/03/23 07:03:41;;;;;;;20.60;16.03;;;8.00;85.80;;;;;;5053423;28;20198;-76
2022/03/23 07:06:06;;;;;;;22.90;14.57;;;8.40;83.80;;;;;;5057080;28;20195;-75
2022/03/23 07:11:16;;;;;;;21.27;15.40;;;8.80;80.70;;;;;;5057430;28;20740;-76
2022/03/23 07:13:42;;;;;;;20.80;16.43;;;8.60;81.70;;;;;;5053522;28;20450;-75
2022/03/23 07:16:07;;;;;;;28.73;15.97;;;8.70;81.30;;;;;;5040304;28;20183;-75
2022/03/23 07:18:33;;;;;;;22.90;15.90;;;8.90;81.00;;;;;;5054723;28;20181;-76
2022/03/23 07:21:00;;;;;;;21.80;14.80;;;8.90;81.50;;;;;;5055627;28;20187;-74
2022/03/23 07:23:26;;;;;;;22.00;14.93;;;9.20;80.40;;;;;;5035798;28;20210;-74
2022/03/23 07:25:52;;;;;;;21.30;15.27;;;9.00;79.90;;;;;;5054404;28;20477;-74
2022/03/23 07:28:17;;;;;;;24.70;15.60;;;9.10;80.00;;;;;;5054920;28;20183;-74
2022/03/23 07:30:43;;;;;;;22.43;16.60;;;9.40;79.50;;;;;;5032358;28;20184;-75
2022/03/23 07:33:09;;;;;;;19.83;14.87;;;9.40;78.90;;;;;;5053177;28;20193;-76
2022/03/23 07:35:34;;;;;;;19.47;14.20;;;9.40;79.10;;;;;;5056471;28;20207;-77
2022/03/23 07:38:00;;;;;;;22.40;15.60;;;9.50;78.90;;;;;;5035446;28;20268;-75
2022/03/23 07:40:26;;;;;;;22.57;15.50;;;9.50;78.90;;;;;;5057237;28;20194;-75
2022/03/23 07:42:51;;;;;;;19.20;15.53;;;9.50;79.10;;;;;;5055602;28;20188;-76
2022/03/23 07:45:17;;;;;;;24.07;17.03;;;9.70;79.50;;;;;;5040062;28;20221;-75
2022/03/23 07:47:43;;;;;;;21.87;14.87;;;9.40;79.30;;;;;;5052667;28;20180;-74
2022/03/23 07:50:10;;;;;;;23.73;15.80;;;9.40;80.20;;;;;;5032739;28;20222;-74
2022/03/23 07:52:39;;;;;;;24.93;16.77;;;9.40;78.50;;;;;;5052516;28;20912;-75
2022/03/23 07:55:05;;;;;;;23.50;16.43;;;9.10;79.40;;;;;;5037493;28;20461;-76
2022/03/23 07:57:30;;;;;;;20.83;15.40;;;9.20;80.20;;;;;;5039662;28;20986;-76
2022/03/23 07:59:56;;;;;;;22.10;14.87;;;9.20;78.60;;;;;;5053310;28;20263;-76
2022/03/23 08:02:26;;;;;;;20.50;14.47;;;9.30;77.20;;;;;;5056166;28;20273;-75
2022/03/23 08:04:52;;;;;;;25.00;15.97;;;9.40;77.30;;;;;;5054578;28;20766;-75
2022/03/23 08:07:18;;;;;;;21.33;14.90;;;9.20;78.00;;;;;;5058270;28;20516;-75
2022/03/23 08:09:43;;;;;;;20.67;14.37;;;9.20;77.90;;;;;;5058385;28;20513;-76
2022/03/23 08:12:09;;;;;;;21.73;16.27;;;9.30;78.10;;;;;;5053018;28;20175;-77
2022/03/23 08:14:35;;;;;;;19.00;14.83;;;9.40;77.70;;;;;;5052714;28;20230;-75
2022/03/23 08:17:00;;;;;;;18.87;14.07;;;9.40;77.40;;;;;;5036014;28;20186;-75
2022/03/23 08:19:26;;;;;;;24.07;15.20;;;9.50;77.30;;;;;;5058881;28;20269;-76
2022/03/23 08:21:53;;;;;;;17.80;13.80;;;9.60;75.70;;;;;;5056448;28;20800;-76
2022/03/23 08:24:18;;;;;;;19.47;14.20;;;9.70;75.30;;;;;;5042226;28;20939;-78
2022/03/23 08:26:45;;;;;;;21.60;15.03;;;9.80;75.00;;;;;;5060158;28;20426;-78
2022/03/23 08:29:10;;;;;;;20.30;14.90;;;9.80;75.20;;;;;;5058872;28;20194;-77
2022/03/23 08:31:37;;;;;;;16.80;14.00;;;9.80;73.80;;;;;;5059614;28;20446;-76
2022/03/23 08:34:04;;;;;;;21.23;14.77;;;9.80;74.50;;;;;;5057229;28;20199;-77
2022/03/23 08:36:30;;;;;;;18.80;13.97;;;9.80;75.00;;;;;;5059338;28;20437;-77
2022/03/23 08:38:55;;;;;;;20.40;14.60;;;9.80;75.00;;;;;;5039892;28;20448;-77
2022/03/23 08:41:22;;;;;;;22.80;14.70;;;9.80;75.20;;;;;;5054759;28;20271;-75
2022/03/23 08:43:48;;;;;;;18.40;14.00;;;9.90;75.20;;;;;;5056172;28;20596;-75
2022/03/23 08:46:14;;;;;;;18.53;14.37;;;10.00;74.00;;;;;;5055915;28;20434;-75
2022/03/23 08:48:40;;;;;;;19.03;14.93;;;10.00;75.00;;;;;;5055638;28;20434;-75
2022/03/23 08:51:06;;;;;;;21.50;14.50;;;10.20;73.90;;;;;;5055628;28;20815;-75
2022/03/23 08:53:32;;;;;;;22.07;16.00;;;10.30;72.50;;;;;;5057303;28;20436;-75
2022/03/23 08:55:59;;;;;;;25.27;15.50;;;10.50;71.20;;;;;;5053686;28;20465;-76
2022/03/23 08:58:25;;;;;;;21.83;15.30;;;10.30;71.80;;;;;;5055143;28;20487;-75
2022/03/23 09:00:51;;;;;;;24.07;16.07;;;10.60;71.10;;;;;;5041233;28;20428;-76
2022/03/23 09:03:16;;;;;;;19.00;15.57;;;10.80;71.70;;;;;;5054919;28;20429;-76
2022/03/23 09:05:42;;;;;;;22.60;14.70;;;10.80;70.30;;;;;;5055523;28;20218;-74
2022/03/23 09:08:08;;;;;;;24.03;16.53;;;11.10;70.10;;;;;;5059005;28;20184;-72
2022/03/23 09:10:34;;;;;;;23.33;15.83;;;11.20;69.90;;;;;;5060262;28;20264;-76
2022/03/23 09:13:00;;;;;;;23.57;15.37;;;11.20;69.60;;;;;;5058468;28;20437;-74
2022/03/23 09:15:26;;;;;;;20.30;15.37;;;11.40;69.40;;;;;;5056602;28;20211;-73
2022/03/23 09:17:58;;;;;;;26.97;16.87;;;11.20;69.30;;;;;;5053904;28;20469;-74
2022/03/23 09:20:25;;;;;;;24.90;15.87;;;11.30;69.40;;;;;;5054356;28;20476;-74
2022/03/23 09:22:52;;;;;;;24.20;15.57;;;11.40;68.60;;;;;;5053000;28;20438;-73
2022/03/23 09:25:18;;;;;;;25.37;16.80;;;11.40;69.10;;;;;;5051624;28;20560;-73
2022/03/23 09:27:44;;;;;;;24.33;16.40;;;11.50;68.30;;;;;;5040454;28;20499;-73
2022/03/23 09:30:13;;;;;;;24.53;17.03;;;11.60;68.10;;;;;;5061842;28;20874;-73
2022/03/23 09:32:39;;;;;;;25.30;16.47;;;11.70;67.20;;;;;;5058553;28;20429;-74
2022/03/23 09:35:06;;;;;;;20.73;15.40;;;11.80;66.70;;;;;;5055751;28;20453;-74
2022/03/23 09:37:49;;;;;;;24.50;16.67;;;11.90;65.50;;;;;;5057851;28;20176;-74
2022/03/23 09:40:28;;;;;;;24.20;15.40;;;12.00;65.60;;;;;;5045235;28;20430;-74
2022/03/23 09:42:57;;;;;;;21.23;15.63;;;12.20;65.20;;;;;;5059834;28;20454;-74
2022/03/23 09:47:56;;;;;;;25.03;17.37;;;12.50;62.70;;;;;;5057753;28;20528;-74
2022/03/23 09:50:21;;;;;;;25.73;17.73;;;12.40;60.60;;;;;;5055931;28;20454;-74
2022/03/23 09:52:48;;;;;;;26.80;18.67;;;12.50;62.50;;;;;;5059059;28;20498;-74
2022/03/23 09:55:14;;;;;;;21.30;16.90;;;12.60;63.60;;;;;;5054050;28;20912;-74
2022/03/23 09:57:39;;;;;;;21.17;16.20;;;12.40;63.30;;;;;;5050957;28;20422;-74
2022/03/23 10:00:10;;;;;;;22.13;16.63;;;12.40;62.90;;;;;;5059109;28;20180;-72
2022/03/23 10:02:39;;;;;;;24.03;17.30;;;12.40;63.40;;;;;;5037635;28;20184;-72
2022/03/23 10:05:43;;;;;;;25.83;18.20;;;12.50;62.70;;;;;;5059996;28;20535;-72
2022/03/23 10:08:15;;;;;;;22.97;15.70;;;12.60;62.10;;;;;;5060456;28;20965;-73
2022/03/23 10:11:19;;;;;;;21.97;17.00;;;12.80;61.80;;;;;;5059928;28;20429;-73
2022/03/23 10:14:22;;;;;;;30.53;16.60;;;13.00;61.40;;;;;;5028789;28;20529;-74
2022/03/23 10:17:23;;;;;;;24.13;16.63;;;13.30;59.70;;;;;;5058863;28;21063;-73
2022/03/23 10:19:49;;;;;;;23.57;16.27;;;13.40;58.50;;;;;;5034286;28;20448;-73
2022/03/23 10:22:15;;;;;;;26.20;17.40;;;13.40;57.40;;;;;;5054351;28;20434;-74
2022/03/23 10:24:41;;;;;;;25.03;18.20;;;13.40;57.70;;;;;;5057860;28;21040;-74
2022/03/23 10:27:13;;;;;;;25.83;17.80;;;13.60;58.30;;;;;;5036570;28;20267;-74
2022/03/23 10:29:44;;;;;;;25.27;16.67;;;13.60;58.30;;;;;;5058031;28;20433;-74
2022/03/23 10:32:10;;;;;;;26.27;17.40;;;13.70;58.10;;;;;;5055372;28;20433;-74
2022/03/23 10:34:38;;;;;;;27.50;18.20;;;13.90;58.10;;;;;;5056581;28;20504;-75
2022/03/23 10:37:04;;;;;;;23.40;18.83;;;14.00;57.80;;;;;;5055122;28;20437;-74
2022/03/23 10:39:31;;;;;;;23.47;16.70;;;14.10;57.30;;;;;;5060340;28;20520;-74
2022/03/23 10:42:12;;;;;;;22.40;18.03;;;13.90;56.30;;;;;;5059696;28;20441;-75
2022/03/23 10:44:38;;;;;;;23.20;16.97;;;14.10;56.70;;;;;;5061699;28;20543;-74
2022/03/23 10:47:04;;;;;;;22.17;16.67;;;14.20;56.50;;;;;;5056670;28;20443;-74
2022/03/23 10:49:38;;;;;;;23.50;17.13;;;14.40;56.90;;;;;;5057760;28;21059;-73
2022/03/23 10:52:14;;;;;;;29.10;17.43;;;14.40;56.40;;;;;;5057269;28;20258;-73
2022/03/23 10:54:52;;;;;;;25.80;17.67;;;14.30;55.80;;;;;;5057140;28;20481;-75
2022/03/23 10:57:18;;;;;;;24.37;16.43;;;14.30;55.70;;;;;;5054799;28;20437;-74
2022/03/23 11:00:13;;;;;;;30.27;16.67;;;14.30;55.30;;;;;;5056625;28;21245;-74
2022/03/23 11:02:49;;;;;;;25.10;17.50;;;14.40;55.30;;;;;;5056076;28;20179;-74
2022/03/23 11:05:34;;;;;;;24.10;17.33;;;14.40;54.40;;;;;;5041702;28;21096;-74
2022/03/23 11:08:11;;;;;;;26.67;18.27;;;14.50;54.40;;;;;;5057202;28;20451;-74
2022/03/23 11:16:25;;;;;;;21.40;17.20;;;14.90;53.30;;;;;;5054189;28;20520;-75
2022/03/23 11:19:13;;;;;;;20.20;16.87;;;15.00;54.00;;;;;;5055166;28;20430;-73
2022/03/23 11:22:11;;;;;;;38.10;23.17;;;15.10;53.70;;;;;;5054971;28;20801;-73
2022/03/23 11:24:42;;;;;;;26.47;19.27;;;15.30;54.40;;;;;;5058358;28;20832;-74
2022/03/23 11:27:10;;;;;;;24.40;18.10;;;15.50;52.80;;;;;;5056162;28;20922;-75
2022/03/23 11:29:39;;;;;;;22.80;17.80;;;15.60;53.00;;;;;;5050669;28;21123;-75
2022/03/23 11:32:11;;;;;;;22.27;17.63;;;15.70;52.70;;;;;;5033910;28;20444;-75
2022/03/23 11:34:38;;;;;;;24.60;18.70;;;15.80;53.70;;;;;;5055988;28;20524;-72
2022/03/23 11:37:06;;;;;;;27.90;18.20;;;15.90;51.80;;;;;;5052898;28;20443;-73
2022/03/23 11:39:34;;;;;;;25.17;17.70;;;15.90;52.10;;;;;;5052225;28;20983;-72
2022/03/23 11:42:03;;;;;;;23.40;18.37;;;15.90;52.10;;;;;;5055473;28;20448;-72
2022/03/23 11:44:29;;;;;;;25.20;19.47;;;16.20;57.20;;;;;;5053438;28;21014;-72
2022/03/23 11:47:06;;;;;;;25.17;17.00;;;16.10;54.10;;;;;;5053980;28;20454;-72
2022/03/23 11:49:34;;;;;;;22.90;17.70;;;16.20;56.80;;;;;;5054898;28;20438;-73
2022/03/23 11:52:12;;;;;;;22.80;17.10;;;16.40;53.30;;;;;;5054067;28;20433;-72
2022/03/23 11:57:54;;;;;;;22.90;17.30;;;16.70;53.80;;;;;;5056895;28;20448;-73
2022/03/23 12:00:21;;;;;;;26.10;19.00;;;16.80;52.50;;;;;;5054996;28;20433;-72
2022/03/23 12:02:47;;;;;;;26.77;17.43;;;17.10;54.20;;;;;;5050559;28;20480;-72
2022/03/23 12:05:32;;;;;;;21.30;17.47;;;17.40;54.90;;;;;;5055013;28;20468;-73
2022/03/23 12:07:58;;;;;;;21.50;16.90;;;17.70;55.50;;;;;;5037699;28;20269;-73
2022/03/23 12:10:28;;;;;;;27.53;17.87;;;18.30;51.70;;;;;;5057776;28;20813;-73
2022/03/23 12:12:54;;;;;;;29.27;18.60;;;19.10;50.90;;;;;;5054736;28;20434;-73
2022/03/23 12:15:21;;;;;;;21.53;17.40;;;19.60;48.50;;;;;;5038777;28;20517;-72
2022/03/23 12:17:55;;;;;;;25.53;18.10;;;20.30;51.70;;;;;;5053371;28;20254;-73
2022/03/23 12:20:48;;;;;;;22.70;18.00;;;21.20;48.50;;;;;;5051914;28;20468;-73
2022/03/23 12:23:36;;;;;;;28.37;22.07;;;21.90;49.50;;;;;;5052621;28;20466;-73
2022/03/23 12:26:04;;;;;;;25.20;19.77;;;22.40;45.40;;;;;;5053945;28;20470;-73
2022/03/23 12:28:44;;;;;;;22.00;17.10;;;23.20;46.10;;;;;;5053608;28;20457;-73
2022/03/23 12:31:14;;;;;;;19.87;17.20;;;23.60;44.90;;;;;;5033237;28;20438;-73
2022/03/23 12:34:12;;;;;;;19.80;16.90;;;23.70;43.40;;;;;;5012950;28;20453;-73
2022/03/23 12:36:58;;;;;;;21.43;16.57;;;24.10;44.60;;;;;;5035815;28;20700;-73
2022/03/23 12:39:51;;;;;;;14.47;12.97;;;24.60;39.90;;;;;;5052769;28;20434;-74
2022/03/23 12:42:20;;;;;;;17.73;16.00;;;24.80;40.50;;;;;;5053615;28;20429;-72
2022/03/23 12:44:49;;;;;;;16.70;14.50;;;25.30;43.00;;;;;;5053047;28;21039;-73
2022/03/23 12:47:20;;;;;;;16.70;15.20;;;25.30;37.80;;;;;;5032710;28;20430;-70
2022/03/23 12:58:10;;;;;;;12.13;10.93;;;24.70;35.30;;;;;;5054415;28;20463;-76
2022/03/23 13:00:42;;;;;;;12.93;11.73;;;24.80;33.40;;;;;;5055911;28;20820;-76
2022/03/23 13:03:07;;;;;;;13.00;11.77;;;24.80;33.20;;;;;;5060807;28;20418;-75
2022/03/23 13:06:00;;;;;;;12.20;11.10;;;24.70;33.50;;;;;;5059584;28;20493;-76
2022/03/23 13:08:33;;;;;;;12.63;11.40;;;24.70;33.40;;;;;;5060377;28;20179;-75
2022/03/23 13:11:06;;;;;;;12.80;11.53;;;24.60;34.00;;;;;;5062615;28;20456;-75
2022/03/23 13:13:37;;;;;;;11.90;10.83;;;24.30;32.40;;;;;;5056512;28;20460;-75